Pagrindinis puslapis
METAR-TAF:

METAR-TAF

Oro uostai :

Alpnach, Šveicarija

platuma: 46-56-19N, ilguma: 8-17-03E, Aukštis: 440 m

Dabartinis oras

Ataskaita buvo paskelbta 26 minutes, ne 18:20 UTC
Vėjas 6 kt iš Šiaurės/Šiaurės Rytų, svyruoja nuo Šiaurės/Šiaurės Vakarų ir Rytų/Šiaurės Rytų
Temperatūra 16°C
Drėgmė 51%
Slėgis 1025 hPa
Matomumas 10 km arba daugiau
Apsiniaukę ne aukštis 4500 ft

METAR: LSMA 191820Z AUTO 02006KT 340V060 9999NDV OVC045 16/06 Q1025 RMK

Laikas: 20:46 (18:46 UTC)


TAF: trūkstamas

Orai ataskaitas ir orų prognozės (METAR, TAF).

turimą stotys yra geltonos ir raudonos taškus žemėlapyje.

Perkelti pele per norėdami pamatyti stoties vardą.

Tada spustelėkite, norėdami matyti oro stebėjimo ir prognozės.

Norėdami pakeisti žemėlapį: spustelėkite ant žalios mygtukų su juodo kryžiaus žemyn,; žalią mygtuką su brūkšneliu, jei norite nutolinti; arba žalių rodyklių gretimoms žemėlapius.


METAR-TAF: